createdAt,value
2018-05-26T00:02:24.594Z,78.46
2018-05-26T00:04:52.198Z,78.38
2018-05-26T00:07:19.825Z,78.53
2018-05-26T00:09:47.427Z,78.63
2018-05-26T00:12:15.059Z,78.75
2018-05-26T00:14:42.660Z,78.80
2018-05-26T00:17:10.557Z,78.74
2018-05-26T00:19:38.216Z,78.69
2018-05-26T00:22:05.889Z,78.70
2018-05-26T00:24:33.532Z,78.64
2018-05-26T00:27:01.133Z,78.64
2018-05-26T00:29:28.766Z,78.75
2018-05-26T00:31:56.368Z,78.87
2018-05-26T00:34:24.102Z,79.16
2018-05-26T00:36:51.698Z,79.13
2018-05-26T00:39:19.299Z,79.40
2018-05-26T00:41:46.935Z,79.63
2018-05-26T00:44:14.758Z,79.92
2018-05-26T00:46:42.409Z,79.89
2018-05-26T00:49:10.010Z,79.74
2018-05-26T00:51:37.937Z,79.67
2018-05-26T00:54:05.543Z,79.54
2018-05-26T00:56:33.259Z,79.74
2018-05-26T00:59:00.891Z,79.51
2018-05-26T01:01:28.524Z,79.39
2018-05-26T01:03:56.153Z,79.29
2018-05-26T01:06:23.918Z,79.55
2018-05-26T01:08:51.532Z,79.58
2018-05-26T01:11:19.160Z,79.58
2018-05-26T01:13:46.763Z,79.64
2018-05-26T01:16:14.557Z,79.72
2018-05-26T01:18:42.168Z,79.78
2018-05-26T01:21:09.814Z,79.74
2018-05-26T01:23:37.452Z,79.65
2018-05-26T01:26:05.197Z,79.74
2018-05-26T01:28:32.865Z,79.73
2018-05-26T01:31:00.457Z,79.84
2018-05-26T01:33:28.118Z,79.97
2018-05-26T01:35:55.746Z,79.91
2018-05-26T01:38:23.380Z,80.17
2018-05-26T01:40:51.015Z,80.22
2018-05-26T01:43:18.615Z,80.39
2018-05-26T01:45:46.298Z,80.63
2018-05-26T01:48:13.901Z,80.66
2018-05-26T01:50:41.965Z,80.54
2018-05-26T01:53:09.948Z,80.57
2018-05-26T01:55:38.114Z,80.67
2018-05-26T01:58:05.817Z,80.48
2018-05-26T02:00:33.672Z,80.61
2018-05-26T02:03:01.375Z,80.43
2018-05-26T02:05:29.542Z,80.32
2018-05-26T02:07:57.311Z,80.31
2018-05-26T02:10:25.353Z,80.22
2018-05-26T02:12:53.143Z,80.27
2018-05-26T02:15:20.779Z,80.22
2018-05-26T02:17:48.398Z,80.30
2018-05-26T02:20:16.056Z,80.46
2018-05-26T02:22:43.655Z,80.66
2018-05-26T02:25:11.260Z,80.68
2018-05-26T02:27:38.978Z,80.60
2018-05-26T02:30:06.598Z,80.74
2018-05-26T02:32:34.230Z,80.88
2018-05-26T02:35:01.841Z,80.79
2018-05-26T02:37:29.667Z,80.64
2018-05-26T02:39:57.282Z,80.98
2018-05-26T02:42:24.882Z,80.83
2018-05-26T02:44:52.514Z,80.68
2018-05-26T02:47:20.114Z,80.74
2018-05-26T02:49:47.747Z,80.82
2018-05-26T02:52:15.366Z,80.76
2018-05-26T02:54:43.100Z,80.78
2018-05-26T02:57:10.715Z,80.72
2018-05-26T02:59:38.322Z,80.64
2018-05-26T03:02:05.964Z,80.62
2018-05-26T03:04:39.197Z,80.71
2018-05-26T03:07:12.885Z,80.85
2018-05-26T03:09:46.127Z,80.85
2018-05-26T03:12:19.261Z,80.81
2018-05-26T03:14:47.224Z,80.71
2018-05-26T03:20:19.141Z,80.58
2018-05-26T03:22:46.767Z,80.65
2018-05-26T03:25:14.376Z,80.62
2018-05-26T03:27:41.999Z,80.58
2018-05-26T03:30:09.598Z,80.59
2018-05-26T03:32:37.241Z,80.53
2018-05-26T03:35:04.843Z,80.58
2018-05-26T03:37:32.438Z,80.23
2018-05-26T03:40:00.068Z,80.12
2018-05-26T03:42:27.662Z,79.98
2018-05-26T03:44:55.283Z,80.17
2018-05-26T03:47:22.879Z,80.09
2018-05-26T03:49:50.538Z,80.46
2018-05-26T03:52:18.135Z,80.27
2018-05-26T03:58:02.843Z,79.95
2018-05-26T04:00:30.489Z,79.74
2018-05-26T04:02:58.097Z,79.87
2018-05-26T04:05:25.725Z,79.92
2018-05-26T04:07:53.355Z,79.79
2018-05-26T04:10:21.185Z,79.75
2018-05-26T04:12:48.872Z,79.63
2018-05-26T04:15:16.650Z,79.73
2018-05-26T04:17:44.916Z,79.72
2018-05-26T04:20:12.593Z,79.81
2018-05-26T04:22:40.191Z,79.77
2018-05-26T04:25:07.811Z,79.76
2018-05-26T04:27:35.403Z,79.71
2018-05-26T04:30:03.033Z,79.50
2018-05-26T04:32:30.666Z,79.51
2018-05-26T04:34:58.313Z,79.52
2018-05-26T04:37:25.910Z,79.56
2018-05-26T04:39:53.515Z,79.58
2018-05-26T04:42:21.137Z,79.49
2018-05-26T04:44:48.732Z,79.31
2018-05-26T04:47:16.364Z,79.50
2018-05-26T04:49:43.967Z,79.49
2018-05-26T04:52:11.772Z,79.40
2018-05-26T04:54:39.370Z,79.00
2018-05-26T04:57:06.979Z,78.92
2018-05-26T04:59:34.716Z,78.93
2018-05-26T05:02:02.309Z,79.02
2018-05-26T05:04:29.975Z,78.91
2018-05-26T05:06:57.640Z,78.43
2018-05-26T05:09:25.625Z,78.52
2018-05-26T05:11:53.309Z,78.75
2018-05-26T05:14:20.910Z,78.67
2018-05-26T05:16:48.529Z,78.58
2018-05-26T05:19:16.277Z,78.38
2018-05-26T05:21:43.910Z,78.30
2018-05-26T05:24:11.512Z,78.33
2018-05-26T05:26:39.292Z,78.48
2018-05-26T05:29:06.948Z,78.13
2018-05-26T05:31:34.560Z,77.41
2018-05-26T05:34:02.207Z,76.90
2018-05-26T05:36:29.806Z,76.56
2018-05-26T05:38:57.507Z,76.40
2018-05-26T05:41:25.100Z,76.28
2018-05-26T05:43:52.726Z,75.83
2018-05-26T05:46:20.322Z,75.87
2018-05-26T05:48:47.948Z,75.23
2018-05-26T05:51:15.551Z,75.66
2018-05-26T05:53:43.153Z,75.82
2018-05-26T05:56:10.794Z,75.30
2018-05-26T05:58:38.412Z,75.25
2018-05-26T06:01:06.045Z,75.17
2018-05-26T06:03:33.656Z,75.14
2018-05-26T06:06:01.291Z,74.73
2018-05-26T06:08:28.886Z,74.82
2018-05-26T06:10:56.497Z,74.45
2018-05-26T06:13:24.108Z,74.76
2018-05-26T06:15:51.714Z,74.26
2018-05-26T06:18:19.338Z,74.43
2018-05-26T06:20:46.947Z,73.77
2018-05-26T06:23:14.595Z,73.68
2018-05-26T06:25:42.194Z,73.83
2018-05-26T06:28:09.895Z,73.96
2018-05-26T06:30:37.519Z,73.72
2018-05-26T06:33:05.116Z,73.65
2018-05-26T06:35:32.731Z,73.50
2018-05-26T06:38:00.333Z,72.97
2018-05-26T06:40:28.204Z,73.04
2018-05-26T06:42:55.798Z,73.13
2018-05-26T06:45:23.403Z,72.79
2018-05-26T06:47:51.030Z,72.73
2018-05-26T06:50:18.622Z,72.42
2018-05-26T06:52:46.385Z,72.19
2018-05-26T06:55:13.986Z,72.17
2018-05-26T06:57:42.052Z,71.60
2018-05-26T07:00:09.649Z,70.91
2018-05-26T07:02:37.237Z,71.12
2018-05-26T07:05:04.859Z,70.56
2018-05-26T07:07:32.455Z,70.33
2018-05-26T07:10:00.099Z,70.34
2018-05-26T07:12:27.696Z,69.57
2018-05-26T07:14:55.588Z,69.88
2018-05-26T07:17:23.191Z,69.45
2018-05-26T07:19:50.797Z,69.19
2018-05-26T07:22:18.431Z,68.88
2018-05-26T07:24:46.062Z,68.45
2018-05-26T07:27:13.679Z,68.18
2018-05-26T07:29:41.277Z,67.78
2018-05-26T07:32:09.114Z,67.69
2018-05-26T07:34:36.722Z,66.93
2018-05-26T07:37:04.440Z,67.00
2018-05-26T07:39:32.054Z,66.58
2018-05-26T07:41:59.653Z,65.41
2018-05-26T07:44:27.323Z,65.15
2018-05-26T07:46:54.948Z,65.11
2018-05-26T07:49:22.604Z,63.81
2018-05-26T07:51:50.204Z,63.63
2018-05-26T07:54:17.815Z,63.61
2018-05-26T07:56:45.454Z,63.59
2018-05-26T07:59:13.050Z,61.86
2018-05-26T08:01:40.699Z,60.92
2018-05-26T08:04:08.294Z,61.46
2018-05-26T08:06:35.920Z,62.17
2018-05-26T08:09:03.530Z,61.91
2018-05-26T08:11:31.143Z,60.75
2018-05-26T08:13:58.767Z,59.84
2018-05-26T08:16:26.365Z,59.90
2018-05-26T08:18:53.998Z,61.79
2018-05-26T08:21:21.605Z,59.65
2018-05-26T08:23:49.515Z,57.90
2018-05-26T08:26:17.291Z,58.34
2018-05-26T08:28:44.890Z,58.06
2018-05-26T08:31:12.507Z,56.60
2018-05-26T08:33:40.122Z,56.77
2018-05-26T08:36:07.741Z,55.49
2018-05-26T08:38:35.340Z,56.18
2018-05-26T08:41:02.972Z,55.95
2018-05-26T08:43:30.567Z,55.26
2018-05-26T08:45:58.194Z,55.15
2018-05-26T08:48:25.814Z,54.48
2018-05-26T08:50:53.414Z,53.34
2018-05-26T08:53:21.050Z,54.12
2018-05-26T08:55:48.666Z,53.85
2018-05-26T08:58:16.255Z,54.09
2018-05-26T09:00:43.873Z,53.61
2018-05-26T09:03:11.466Z,54.27
2018-05-26T09:05:39.141Z,54.34
2018-05-26T09:08:06.697Z,54.36
2018-05-26T09:10:34.686Z,53.29
2018-05-26T09:13:02.302Z,53.37
2018-05-26T09:15:29.891Z,54.00
2018-05-26T09:17:57.523Z,55.30
2018-05-26T09:20:25.117Z,54.27
2018-05-26T09:22:52.759Z,54.38
2018-05-26T09:25:20.371Z,55.48
2018-05-26T09:27:48.144Z,53.79
2018-05-26T09:30:15.806Z,53.69
2018-05-26T09:32:43.378Z,53.10
2018-05-26T09:35:11.006Z,53.10
2018-05-26T09:37:38.618Z,54.41
2018-05-26T09:40:06.297Z,55.88
2018-05-26T09:42:33.866Z,52.93
2018-05-26T09:45:01.974Z,53.70
2018-05-26T09:47:29.582Z,52.17
2018-05-26T09:49:57.180Z,52.74
2018-05-26T09:52:24.800Z,51.86
2018-05-26T09:54:52.396Z,51.87
2018-05-26T09:57:20.073Z,53.80
2018-05-26T09:59:47.666Z,52.47
2018-05-26T10:02:15.609Z,51.01
2018-05-26T10:04:43.205Z,52.49
2018-05-26T10:07:10.810Z,50.41
2018-05-26T10:09:38.431Z,50.85
2018-05-26T10:12:06.036Z,52.92
2018-05-26T10:14:33.725Z,50.98
2018-05-26T10:17:01.315Z,50.58
2018-05-26T10:19:29.037Z,50.17
2018-05-26T10:21:56.636Z,50.81
2018-05-26T10:24:24.230Z,49.93
2018-05-26T10:26:51.851Z,50.52
2018-05-26T10:29:19.452Z,51.81
2018-05-26T10:31:47.066Z,50.17
2018-05-26T10:34:14.698Z,49.63
2018-05-26T10:36:42.342Z,50.64
2018-05-26T10:39:09.931Z,50.12
2018-05-26T10:41:37.802Z,48.37
2018-05-26T10:44:05.385Z,48.64
2018-05-26T10:46:33.013Z,50.06
2018-05-26T10:49:00.630Z,49.30
2018-05-26T10:51:28.243Z,49.36
2018-05-26T10:53:55.917Z,49.38
2018-05-26T10:56:23.558Z,48.30
2018-05-26T10:58:51.251Z,48.51
2018-05-26T11:01:18.871Z,47.56
2018-05-26T11:03:46.464Z,47.37
2018-05-26T11:06:14.101Z,48.14
2018-05-26T11:08:42.004Z,46.64
2018-05-26T11:11:09.747Z,47.26
2018-05-26T11:13:37.359Z,47.89
2018-05-26T11:16:05.353Z,46.53
2018-05-26T11:18:32.950Z,47.99
2018-05-26T11:21:00.554Z,46.24
2018-05-26T11:23:28.178Z,46.25
2018-05-26T11:25:55.834Z,45.20
2018-05-26T11:28:23.468Z,45.41
2018-05-26T11:30:51.070Z,46.12
2018-05-26T11:33:18.710Z,45.05
2018-05-26T11:35:46.320Z,46.72
2018-05-26T11:38:13.919Z,44.52
2018-05-26T11:40:41.587Z,43.25
2018-05-26T11:43:09.174Z,43.69
2018-05-26T11:45:36.808Z,44.62
2018-05-26T11:48:04.402Z,43.99
2018-05-26T11:50:32.044Z,44.92
2018-05-26T11:52:59.651Z,44.75
2018-05-26T11:55:27.254Z,41.62
2018-05-26T11:57:54.904Z,43.10
2018-05-26T12:00:22.502Z,42.63
2018-05-26T12:02:50.334Z,42.17
2018-05-26T12:05:17.932Z,39.96
2018-05-26T12:07:45.521Z,40.19
2018-05-26T12:10:13.167Z,40.78
2018-05-26T12:12:40.774Z,41.96
2018-05-26T12:15:08.406Z,41.68
2018-05-26T12:17:36.002Z,41.61
2018-05-26T12:20:03.643Z,41.45
2018-05-26T12:22:31.260Z,41.10
2018-05-26T12:24:58.871Z,38.44
2018-05-26T12:27:26.964Z,39.22
2018-05-26T12:29:54.566Z,39.32
2018-05-26T12:32:22.165Z,39.33
2018-05-26T12:34:49.800Z,39.47
2018-05-26T12:37:17.517Z,40.35
2018-05-26T12:39:45.294Z,41.40
2018-05-26T12:42:12.908Z,40.10
2018-05-26T12:44:40.490Z,41.59
2018-05-26T12:47:08.133Z,40.44
2018-05-26T12:49:35.855Z,38.99
2018-05-26T12:52:03.593Z,39.45
2018-05-26T12:54:31.205Z,40.32
2018-05-26T12:56:59.018Z,42.41
2018-05-26T12:59:26.625Z,41.25
2018-05-26T13:01:54.236Z,40.86
2018-05-26T13:04:21.906Z,39.54
2018-05-26T13:06:49.580Z,38.43
2018-05-26T13:09:17.673Z,38.06
2018-05-26T13:11:45.280Z,35.57
2018-05-26T13:14:12.877Z,34.67
2018-05-26T13:16:40.513Z,34.71
2018-05-26T13:19:08.136Z,34.53
2018-05-26T13:21:35.752Z,35.76
2018-05-26T13:24:03.365Z,38.42
2018-05-26T13:26:31.172Z,34.78
2018-05-26T13:28:58.767Z,33.18
2018-05-26T13:31:26.366Z,33.55
2018-05-26T13:33:54.172Z,33.63
2018-05-26T13:36:21.753Z,35.81
2018-05-26T13:38:49.585Z,36.52
2018-05-26T13:41:17.178Z,35.57
2018-05-26T13:43:44.812Z,34.62
2018-05-26T13:46:12.431Z,34.44
2018-05-26T13:48:40.026Z,32.03
2018-05-26T13:51:08.098Z,32.18
2018-05-26T13:53:35.767Z,32.03
2018-05-26T13:56:03.378Z,32.22
2018-05-26T13:58:31.008Z,33.47
2018-05-26T14:00:58.616Z,34.05
2018-05-26T14:03:26.234Z,35.92
2018-05-26T14:05:53.822Z,36.92
2018-05-26T14:08:21.549Z,38.50
2018-05-26T14:10:49.150Z,38.62
2018-05-26T14:13:16.807Z,39.25
2018-05-26T14:15:44.431Z,39.71
2018-05-26T14:18:12.186Z,40.53
2018-05-26T14:20:39.795Z,39.97
2018-05-26T14:23:07.408Z,41.24
2018-05-26T14:25:35.201Z,40.67
2018-05-26T14:28:02.788Z,40.82
2018-05-26T14:30:30.378Z,41.32
2018-05-26T14:32:57.996Z,40.99
2018-05-26T14:35:25.600Z,40.78
2018-05-26T14:37:53.236Z,41.22
2018-05-26T14:40:21.961Z,41.27
2018-05-26T14:42:50.043Z,41.29
2018-05-26T14:45:17.670Z,41.05
2018-05-26T14:47:45.539Z,41.51
2018-05-26T14:50:13.195Z,40.70
2018-05-26T14:52:40.796Z,40.06
2018-05-26T14:55:08.485Z,41.20
2018-05-26T14:57:36.131Z,40.93
2018-05-26T15:00:03.754Z,39.65
2018-05-26T15:02:31.395Z,40.53
2018-05-26T15:04:59.017Z,41.21
2018-05-26T15:07:26.891Z,39.72
2018-05-26T15:09:54.626Z,40.31
2018-05-26T15:12:22.299Z,39.89
2018-05-26T15:14:49.899Z,40.91
2018-05-26T15:17:17.529Z,38.02
2018-05-26T15:19:45.115Z,38.73
2018-05-26T15:22:12.843Z,39.87
2018-05-26T15:24:40.439Z,39.29
2018-05-26T15:27:08.124Z,40.00
2018-05-26T15:29:35.734Z,40.98
2018-05-26T15:32:03.363Z,39.88
2018-05-26T15:34:30.976Z,40.18
2018-05-26T15:36:58.621Z,40.40
2018-05-26T15:39:26.882Z,40.16
2018-05-26T15:41:54.487Z,39.30
2018-05-26T15:44:22.109Z,40.34
2018-05-26T15:46:50.477Z,40.08
2018-05-26T15:49:18.261Z,39.94
2018-05-26T15:51:46.023Z,40.42
2018-05-26T15:54:13.786Z,39.68
2018-05-26T15:56:41.373Z,41.24
2018-05-26T15:59:09.024Z,40.14
2018-05-26T16:01:36.672Z,39.37
2018-05-26T16:04:04.260Z,39.73
2018-05-26T16:06:32.075Z,39.52
2018-05-26T16:08:59.685Z,40.02
2018-05-26T16:11:27.414Z,40.68
2018-05-26T16:13:55.027Z,40.03
2018-05-26T16:16:22.631Z,39.98
2018-05-26T16:18:50.288Z,39.38
2018-05-26T16:21:17.900Z,40.52
2018-05-26T16:23:45.538Z,40.10
2018-05-26T16:26:13.339Z,40.14
2018-05-26T16:28:41.365Z,40.69
2018-05-26T16:31:08.976Z,39.96
2018-05-26T16:33:36.574Z,41.40
2018-05-26T16:36:04.203Z,40.64
2018-05-26T16:38:31.861Z,39.91
2018-05-26T16:40:59.474Z,39.35
2018-05-26T16:43:27.074Z,39.38
2018-05-26T16:45:54.905Z,39.59
2018-05-26T16:48:22.499Z,39.36
2018-05-26T16:50:50.093Z,39.09
2018-05-26T16:53:17.749Z,39.22
2018-05-26T16:55:45.339Z,39.27
2018-05-26T16:58:13.146Z,39.78
2018-05-26T17:00:40.981Z,40.36
2018-05-26T17:03:08.749Z,40.74
2018-05-26T17:05:36.345Z,40.17
2018-05-26T17:08:03.951Z,40.13
2018-05-26T17:10:31.592Z,40.58
2018-05-26T17:12:59.189Z,41.23
2018-05-26T17:15:26.816Z,41.54
2018-05-26T17:17:54.441Z,41.78
2018-05-26T17:20:22.565Z,42.08
2018-05-26T17:22:50.508Z,41.94
2018-05-26T17:25:18.164Z,41.65
2018-05-26T17:27:45.881Z,42.24
2018-05-26T17:30:13.657Z,42.48
2018-05-26T17:32:41.279Z,42.13
2018-05-26T17:35:09.491Z,42.69
2018-05-26T17:37:37.353Z,42.77
2018-05-26T17:40:04.947Z,43.38
2018-05-26T17:42:32.550Z,43.29
2018-05-26T17:45:00.174Z,43.65
2018-05-26T17:47:27.779Z,44.39
2018-05-26T17:49:55.445Z,44.12
2018-05-26T17:52:23.053Z,42.87
2018-05-26T17:54:50.643Z,41.33
2018-05-26T17:57:18.296Z,39.14
2018-05-26T17:59:45.926Z,38.31
2018-05-26T18:02:14.295Z,38.07
2018-05-26T18:04:41.940Z,39.18
2018-05-26T18:07:09.567Z,40.05
2018-05-26T18:09:37.183Z,40.86
2018-05-26T18:12:04.841Z,41.66
2018-05-26T18:14:32.480Z,42.58
2018-05-26T18:17:00.086Z,43.40
2018-05-26T18:19:27.727Z,42.99
2018-05-26T18:21:55.422Z,43.57
2018-05-26T18:24:23.018Z,44.56
2018-05-26T18:26:50.695Z,44.55
2018-05-26T18:29:18.370Z,45.29
2018-05-26T18:31:45.999Z,45.81
2018-05-26T18:34:13.600Z,45.96
2018-05-26T18:36:41.458Z,46.32
2018-05-26T18:39:09.111Z,46.87
2018-05-26T18:41:36.720Z,47.45
2018-05-26T18:44:04.453Z,47.87
2018-05-26T18:46:32.061Z,48.52
2018-05-26T18:48:59.687Z,48.98
2018-05-26T18:51:27.286Z,49.25
2018-05-26T18:53:54.945Z,49.31
2018-05-26T18:56:22.538Z,49.62
2018-05-26T18:58:50.423Z,49.91
2018-05-26T19:01:18.826Z,50.19
2018-05-26T19:03:46.442Z,50.53
2018-05-26T19:06:14.051Z,51.01
2018-05-26T19:08:41.650Z,51.40
2018-05-26T19:11:09.288Z,51.72
2018-05-26T19:13:36.894Z,52.26
2018-05-26T19:16:04.553Z,52.63
2018-05-26T19:18:32.705Z,52.69
2018-05-26T19:21:00.308Z,52.97
2018-05-26T19:23:27.972Z,53.31
2018-05-26T19:25:55.601Z,53.59
2018-05-26T19:28:23.246Z,53.89
2018-05-26T19:30:51.058Z,54.12
2018-05-26T19:33:18.940Z,54.41
2018-05-26T19:35:46.545Z,54.80
2018-05-26T19:38:14.167Z,55.14
2018-05-26T19:40:41.802Z,56.89
2018-05-26T19:43:09.415Z,58.48
2018-05-26T19:45:37.239Z,58.92
2018-05-26T19:48:04.855Z,59.50
2018-05-26T19:50:32.886Z,59.55
2018-05-26T19:53:00.517Z,59.26
2018-05-26T19:55:28.124Z,59.48
2018-05-26T19:57:55.779Z,59.69
2018-05-26T20:00:23.389Z,60.42
2018-05-26T20:02:51.216Z,60.69
2018-05-26T20:05:18.842Z,60.47
2018-05-26T20:07:46.478Z,60.15
2018-05-26T20:10:14.100Z,60.61
2018-05-26T20:12:41.730Z,60.84
2018-05-26T20:15:09.443Z,61.37
2018-05-26T20:17:37.219Z,61.85
2018-05-26T20:20:04.829Z,62.28
2018-05-26T20:22:32.454Z,62.51
2018-05-26T20:25:00.196Z,63.26
2018-05-26T20:27:27.821Z,63.58
2018-05-26T20:29:55.451Z,63.37
2018-05-26T20:32:23.179Z,63.66
2018-05-26T20:34:50.847Z,64.13
2018-05-26T20:37:18.483Z,63.85
2018-05-26T20:39:46.237Z,63.48
2018-05-26T20:42:14.194Z,64.02
2018-05-26T20:44:42.038Z,64.17
2018-05-26T20:47:10.133Z,64.39
2018-05-26T20:49:38.119Z,64.49
2018-05-26T20:52:05.743Z,64.17
2018-05-26T20:54:33.399Z,65.13
2018-05-26T20:57:01.000Z,65.62
2018-05-26T20:59:30.296Z,65.77
2018-05-26T21:01:57.892Z,65.82
2018-05-26T21:04:25.565Z,66.62
2018-05-26T21:06:53.332Z,66.78
2018-05-26T21:09:20.976Z,66.42
2018-05-26T21:11:48.576Z,66.78
2018-05-26T21:14:16.221Z,67.15
2018-05-26T21:16:43.840Z,68.31
2018-05-26T21:19:11.472Z,69.47
2018-05-26T21:21:39.098Z,70.01
2018-05-26T21:24:06.718Z,71.35
2018-05-26T21:26:34.364Z,71.59
2018-05-26T21:29:01.975Z,71.73
2018-05-26T21:31:29.610Z,71.70
2018-05-26T21:33:57.215Z,71.85
2018-05-26T21:36:24.858Z,71.89
2018-05-26T21:38:52.450Z,72.28
2018-05-26T21:41:20.127Z,72.42
2018-05-26T21:43:47.751Z,73.39
2018-05-26T21:46:15.763Z,73.38
2018-05-26T21:48:43.410Z,73.22
2018-05-26T21:51:11.244Z,71.68
2018-05-26T21:53:39.193Z,71.30
2018-05-26T21:56:06.805Z,70.43
2018-05-26T21:58:34.486Z,70.67
2018-05-26T22:01:02.090Z,71.45
2018-05-26T22:03:29.731Z,71.23
2018-05-26T22:05:57.322Z,71.15
2018-05-26T22:08:24.988Z,70.99
2018-05-26T22:10:52.618Z,70.67
2018-05-26T22:13:20.214Z,70.60
2018-05-26T22:15:47.915Z,70.44
2018-05-26T22:18:15.644Z,70.39
2018-05-26T22:20:43.253Z,70.34
2018-05-26T22:23:10.846Z,70.02
2018-05-26T22:25:38.502Z,69.85
2018-05-26T22:28:06.125Z,70.40
2018-05-26T22:30:33.730Z,71.28
2018-05-26T22:33:01.377Z,72.15
2018-05-26T22:35:28.998Z,72.79
2018-05-26T22:37:56.628Z,73.27
2018-05-26T22:40:24.231Z,72.47
2018-05-26T22:42:52.202Z,72.17
2018-05-26T22:45:19.819Z,71.87
2018-05-26T22:47:47.428Z,71.78
2018-05-26T22:50:15.045Z,71.70
2018-05-26T22:52:42.727Z,71.97
2018-05-26T22:55:10.355Z,71.94
2018-05-26T22:57:37.973Z,72.39
2018-05-26T23:00:05.844Z,72.06
2018-05-26T23:02:33.438Z,72.03
2018-05-26T23:05:01.066Z,72.08
2018-05-26T23:07:28.714Z,72.08
2018-05-26T23:09:56.323Z,71.96
2018-05-26T23:12:23.977Z,71.94
2018-05-26T23:14:51.607Z,72.25
2018-05-26T23:17:19.275Z,72.52
2018-05-26T23:19:46.871Z,72.96
2018-05-26T23:22:14.477Z,73.19
2018-05-26T23:24:42.108Z,73.54
2018-05-26T23:27:09.719Z,73.68
2018-05-26T23:29:37.355Z,73.71
2018-05-26T23:32:04.993Z,74.23
2018-05-26T23:34:32.901Z,74.20
2018-05-26T23:37:00.507Z,74.10
2018-05-26T23:39:28.103Z,73.71
2018-05-26T23:41:55.793Z,73.85
2018-05-26T23:44:23.391Z,73.79
2018-05-26T23:46:51.024Z,74.38
2018-05-26T23:49:18.620Z,74.33
2018-05-26T23:51:46.256Z,74.45
2018-05-26T23:54:13.901Z,74.49
2018-05-26T23:56:41.507Z,73.91
2018-05-26T23:59:09.127Z,73.91
